sensor_id;sensor_type;location;lat;lon;timestamp;P1;durP1;ratioP1;P2;durP2;ratioP2
8572;SDS011;4324;42.012;24.872;2022-08-16T00:00:36;12.07;;;11.07;;
8572;SDS011;4324;42.012;24.872;2022-08-16T00:03:04;12.37;;;11.27;;
8572;SDS011;4324;42.012;24.872;2022-08-16T00:05:31;12.43;;;11.40;;
8572;SDS011;4324;42.012;24.872;2022-08-16T00:07:58;11.80;;;10.70;;
8572;SDS011;4324;42.012;24.872;2022-08-16T00:10:27;17.33;;;11.93;;
8572;SDS011;4324;42.012;24.872;2022-08-16T00:12:57;11.77;;;10.77;;
8572;SDS011;4324;42.012;24.872;2022-08-16T00:15:26;11.90;;;10.90;;
8572;SDS011;4324;42.012;24.872;2022-08-16T00:17:56;11.80;;;10.80;;
8572;SDS011;4324;42.012;24.872;2022-08-16T00:20:22;12.23;;;11.13;;
8572;SDS011;4324;42.012;24.872;2022-08-16T00:22:50;12.10;;;11.17;;
8572;SDS011;4324;42.012;24.872;2022-08-16T00:25:18;11.83;;;10.87;;
8572;SDS011;4324;42.012;24.872;2022-08-16T00:27:48;11.97;;;10.97;;
8572;SDS011;4324;42.012;24.872;2022-08-16T00:30:16;11.67;;;10.80;;
8572;SDS011;4324;42.012;24.872;2022-08-16T00:32:45;12.40;;;11.40;;
8572;SDS011;4324;42.012;24.872;2022-08-16T00:35:16;11.83;;;10.67;;
8572;SDS011;4324;42.012;24.872;2022-08-16T00:37:46;11.40;;;10.30;;
8572;SDS011;4324;42.012;24.872;2022-08-16T00:40:14;12.33;;;11.27;;
8572;SDS011;4324;42.012;24.872;2022-08-16T00:42:44;12.13;;;11.10;;
8572;SDS011;4324;42.012;24.872;2022-08-16T00:45:15;12.37;;;11.37;;
8572;SDS011;4324;42.012;24.872;2022-08-16T00:47:52;11.47;;;10.67;;
8572;SDS011;4324;42.012;24.872;2022-08-16T00:50:22;13.40;;;12.23;;
8572;SDS011;4324;42.012;24.872;2022-08-16T00:52:51;12.87;;;11.77;;
8572;SDS011;4324;42.012;24.872;2022-08-16T00:55:19;12.83;;;11.90;;
8572;SDS011;4324;42.012;24.872;2022-08-16T00:57:48;13.77;;;12.60;;
8572;SDS011;4324;42.012;24.872;2022-08-16T01:00:20;12.37;;;11.27;;
8572;SDS011;4324;42.012;24.872;2022-08-16T01:02:49;12.47;;;11.27;;
8572;SDS011;4324;42.012;24.872;2022-08-16T01:05:16;12.73;;;11.73;;
8572;SDS011;4324;42.012;24.872;2022-08-16T01:07:44;12.43;;;11.40;;
8572;SDS011;4324;42.012;24.872;2022-08-16T01:10:11;12.57;;;11.57;;
8572;SDS011;4324;42.012;24.872;2022-08-16T01:12:38;12.53;;;11.47;;
8572;SDS011;4324;42.012;24.872;2022-08-16T01:15:06;13.17;;;12.07;;
8572;SDS011;4324;42.012;24.872;2022-08-16T01:17:35;12.53;;;11.53;;
8572;SDS011;4324;42.012;24.872;2022-08-16T01:20:04;12.73;;;11.70;;
8572;SDS011;4324;42.012;24.872;2022-08-16T01:22:37;12.20;;;11.20;;
8572;SDS011;4324;42.012;24.872;2022-08-16T01:25:15;12.27;;;11.20;;
8572;SDS011;4324;42.012;24.872;2022-08-16T01:27:47;12.93;;;11.83;;
8572;SDS011;4324;42.012;24.872;2022-08-16T01:30:18;13.20;;;12.03;;
8572;SDS011;4324;42.012;24.872;2022-08-16T01:32:48;13.07;;;12.07;;
8572;SDS011;4324;42.012;24.872;2022-08-16T01:35:18;13.17;;;12.03;;
8572;SDS011;4324;42.012;24.872;2022-08-16T01:37:50;12.60;;;11.60;;
8572;SDS011;4324;42.012;24.872;2022-08-16T01:40:20;13.60;;;12.30;;
8572;SDS011;4324;42.012;24.872;2022-08-16T01:42:48;12.87;;;11.77;;
8572;SDS011;4324;42.012;24.872;2022-08-16T01:45:16;13.73;;;12.40;;
8572;SDS011;4324;42.012;24.872;2022-08-16T01:47:44;14.50;;;13.30;;
8572;SDS011;4324;42.012;24.872;2022-08-16T01:50:15;13.83;;;12.73;;
8572;SDS011;4324;42.012;24.872;2022-08-16T01:52:43;14.53;;;13.33;;
8572;SDS011;4324;42.012;24.872;2022-08-16T01:55:10;13.87;;;12.77;;
8572;SDS011;4324;42.012;24.872;2022-08-16T01:57:38;13.20;;;12.10;;
8572;SDS011;4324;42.012;24.872;2022-08-16T02:00:07;14.73;;;13.17;;
8572;SDS011;4324;42.012;24.872;2022-08-16T02:02:35;15.67;;;14.07;;
8572;SDS011;4324;42.012;24.872;2022-08-16T02:05:03;13.47;;;12.37;;
8572;SDS011;4324;42.012;24.872;2022-08-16T02:07:31;13.33;;;12.13;;
8572;SDS011;4324;42.012;24.872;2022-08-16T02:09:58;13.10;;;12.00;;
8572;SDS011;4324;42.012;24.872;2022-08-16T02:12:25;13.37;;;12.20;;
8572;SDS011;4324;42.012;24.872;2022-08-16T02:14:55;12.80;;;11.70;;
8572;SDS011;4324;42.012;24.872;2022-08-16T02:17:22;13.40;;;12.40;;
8572;SDS011;4324;42.012;24.872;2022-08-16T02:19:50;13.50;;;12.40;;
8572;SDS011;4324;42.012;24.872;2022-08-16T02:22:19;13.73;;;12.60;;
8572;SDS011;4324;42.012;24.872;2022-08-16T02:24:47;13.13;;;12.13;;
8572;SDS011;4324;42.012;24.872;2022-08-16T02:27:15;13.07;;;11.97;;
8572;SDS011;4324;42.012;24.872;2022-08-16T02:29:42;14.13;;;12.67;;
8572;SDS011;4324;42.012;24.872;2022-08-16T02:32:12;13.43;;;12.33;;
8572;SDS011;4324;42.012;24.872;2022-08-16T02:34:40;13.40;;;12.30;;
8572;SDS011;4324;42.012;24.872;2022-08-16T02:37:07;12.90;;;11.80;;
8572;SDS011;4324;42.012;24.872;2022-08-16T02:39:35;12.97;;;11.87;;
8572;SDS011;4324;42.012;24.872;2022-08-16T02:42:02;12.57;;;11.53;;
8572;SDS011;4324;42.012;24.872;2022-08-16T02:44:29;14.07;;;12.77;;
8572;SDS011;4324;42.012;24.872;2022-08-16T02:46:56;13.47;;;12.37;;
8572;SDS011;4324;42.012;24.872;2022-08-16T02:49:24;13.50;;;12.40;;
8572;SDS011;4324;42.012;24.872;2022-08-16T02:51:51;12.97;;;11.80;;
8572;SDS011;4324;42.012;24.872;2022-08-16T02:54:19;13.93;;;12.70;;
8572;SDS011;4324;42.012;24.872;2022-08-16T02:56:46;12.60;;;11.43;;
8572;SDS011;4324;42.012;24.872;2022-08-16T02:59:13;13.10;;;11.97;;
8572;SDS011;4324;42.012;24.872;2022-08-16T03:01:40;14.90;;;13.50;;
8572;SDS011;4324;42.012;24.872;2022-08-16T03:04:07;14.37;;;13.17;;
8572;SDS011;4324;42.012;24.872;2022-08-16T03:06:36;14.07;;;12.87;;
8572;SDS011;4324;42.012;24.872;2022-08-16T03:09:03;13.47;;;12.27;;
8572;SDS011;4324;42.012;24.872;2022-08-16T03:11:30;13.73;;;12.63;;
8572;SDS011;4324;42.012;24.872;2022-08-16T03:13:57;13.40;;;12.30;;
8572;SDS011;4324;42.012;24.872;2022-08-16T03:16:24;14.10;;;12.90;;
8572;SDS011;4324;42.012;24.872;2022-08-16T03:18:52;13.67;;;12.47;;
8572;SDS011;4324;42.012;24.872;2022-08-16T03:21:19;13.80;;;12.50;;
8572;SDS011;4324;42.012;24.872;2022-08-16T03:23:48;13.50;;;12.37;;
8572;SDS011;4324;42.012;24.872;2022-08-16T03:26:15;13.93;;;12.83;;
8572;SDS011;4324;42.012;24.872;2022-08-16T03:28:42;13.67;;;12.57;;
8572;SDS011;4324;42.012;24.872;2022-08-16T03:31:09;14.23;;;13.03;;
8572;SDS011;4324;42.012;24.872;2022-08-16T03:33:36;13.93;;;12.73;;
8572;SDS011;4324;42.012;24.872;2022-08-16T03:36:04;13.17;;;12.07;;
8572;SDS011;4324;42.012;24.872;2022-08-16T03:38:32;13.93;;;12.83;;
8572;SDS011;4324;42.012;24.872;2022-08-16T03:41:01;13.67;;;12.37;;
8572;SDS011;4324;42.012;24.872;2022-08-16T03:43:29;13.80;;;12.57;;
8572;SDS011;4324;42.012;24.872;2022-08-16T03:45:57;13.70;;;12.60;;
8572;SDS011;4324;42.012;24.872;2022-08-16T03:48:25;13.90;;;12.70;;
8572;SDS011;4324;42.012;24.872;2022-08-16T03:50:56;13.73;;;12.53;;
8572;SDS011;4324;42.012;24.872;2022-08-16T03:53:24;14.20;;;13.03;;
8572;SDS011;4324;42.012;24.872;2022-08-16T03:55:51;14.17;;;13.07;;
8572;SDS011;4324;42.012;24.872;2022-08-16T03:58:19;14.30;;;13.07;;
8572;SDS011;4324;42.012;24.872;2022-08-16T04:00:46;15.00;;;13.40;;
8572;SDS011;4324;42.012;24.872;2022-08-16T04:03:15;12.93;;;11.83;;
8572;SDS011;4324;42.012;24.872;2022-08-16T04:05:43;13.70;;;12.53;;
8572;SDS011;4324;42.012;24.872;2022-08-16T04:08:12;14.00;;;12.90;;
8572;SDS011;4324;42.012;24.872;2022-08-16T04:10:40;16.67;;;15.30;;
8572;SDS011;4324;42.012;24.872;2022-08-16T04:13:07;16.07;;;14.57;;
8572;SDS011;4324;42.012;24.872;2022-08-16T04:15:35;13.07;;;12.00;;
8572;SDS011;4324;42.012;24.872;2022-08-16T04:18:02;14.67;;;13.37;;
8572;SDS011;4324;42.012;24.872;2022-08-16T04:20:30;14.90;;;13.53;;
8572;SDS011;4324;42.012;24.872;2022-08-16T04:22:58;14.40;;;13.07;;
8572;SDS011;4324;42.012;24.872;2022-08-16T04:25:25;15.73;;;12.80;;
8572;SDS011;4324;42.012;24.872;2022-08-16T04:27:52;13.73;;;12.60;;
8572;SDS011;4324;42.012;24.872;2022-08-16T04:30:20;14.33;;;13.03;;
8572;SDS011;4324;42.012;24.872;2022-08-16T04:32:49;14.03;;;12.83;;
8572;SDS011;4324;42.012;24.872;2022-08-16T04:35:16;14.43;;;13.13;;
8572;SDS011;4324;42.012;24.872;2022-08-16T04:37:48;14.23;;;13.17;;
8572;SDS011;4324;42.012;24.872;2022-08-16T04:40:16;14.73;;;13.53;;
8572;SDS011;4324;42.012;24.872;2022-08-16T04:42:46;14.57;;;13.07;;
8572;SDS011;4324;42.012;24.872;2022-08-16T04:45:14;14.57;;;13.37;;
8572;SDS011;4324;42.012;24.872;2022-08-16T04:47:42;14.70;;;13.30;;
8572;SDS011;4324;42.012;24.872;2022-08-16T04:50:12;14.53;;;13.23;;
8572;SDS011;4324;42.012;24.872;2022-08-16T04:52:43;14.73;;;13.33;;
8572;SDS011;4324;42.012;24.872;2022-08-16T04:55:15;14.90;;;13.60;;
8572;SDS011;4324;42.012;24.872;2022-08-16T04:57:44;15.27;;;14.03;;
8572;SDS011;4324;42.012;24.872;2022-08-16T05:00:12;14.83;;;13.53;;
8572;SDS011;4324;42.012;24.872;2022-08-16T05:02:43;15.70;;;14.40;;
8572;SDS011;4324;42.012;24.872;2022-08-16T05:05:12;15.53;;;14.20;;
8572;SDS011;4324;42.012;24.872;2022-08-16T05:07:39;15.80;;;14.50;;
8572;SDS011;4324;42.012;24.872;2022-08-16T05:10:06;14.03;;;12.73;;
8572;SDS011;4324;42.012;24.872;2022-08-16T05:12:35;14.53;;;13.30;;
8572;SDS011;4324;42.012;24.872;2022-08-16T05:15:02;14.37;;;13.27;;
8572;SDS011;4324;42.012;24.872;2022-08-16T05:17:30;14.20;;;12.80;;
8572;SDS011;4324;42.012;24.872;2022-08-16T05:19:57;13.90;;;12.80;;
8572;SDS011;4324;42.012;24.872;2022-08-16T05:22:26;14.53;;;13.33;;
8572;SDS011;4324;42.012;24.872;2022-08-16T05:24:54;14.20;;;13.10;;
8572;SDS011;4324;42.012;24.872;2022-08-16T05:27:21;14.57;;;13.27;;
8572;SDS011;4324;42.012;24.872;2022-08-16T05:29:48;14.63;;;13.43;;
8572;SDS011;4324;42.012;24.872;2022-08-16T05:32:15;16.03;;;14.47;;
8572;SDS011;4324;42.012;24.872;2022-08-16T05:34:42;17.03;;;14.07;;
8572;SDS011;4324;42.012;24.872;2022-08-16T05:37:09;14.97;;;13.67;;
8572;SDS011;4324;42.012;24.872;2022-08-16T05:39:37;15.23;;;13.87;;
8572;SDS011;4324;42.012;24.872;2022-08-16T05:42:04;15.03;;;13.83;;
8572;SDS011;4324;42.012;24.872;2022-08-16T05:44:31;38.57;;;16.93;;
8572;SDS011;4324;42.012;24.872;2022-08-16T05:46:59;17.83;;;16.07;;
8572;SDS011;4324;42.012;24.872;2022-08-16T05:49:27;16.00;;;14.30;;
8572;SDS011;4324;42.012;24.872;2022-08-16T05:51:55;22.90;;;16.47;;
8572;SDS011;4324;42.012;24.872;2022-08-16T05:54:24;16.17;;;14.70;;
8572;SDS011;4324;42.012;24.872;2022-08-16T05:56:57;23.27;;;17.37;;
8572;SDS011;4324;42.012;24.872;2022-08-16T05:59:24;24.50;;;15.83;;
8572;SDS011;4324;42.012;24.872;2022-08-16T06:01:51;22.87;;;14.50;;
8572;SDS011;4324;42.012;24.872;2022-08-16T06:04:18;14.27;;;13.07;;
8572;SDS011;4324;42.012;24.872;2022-08-16T06:06:46;17.77;;;15.80;;
8572;SDS011;4324;42.012;24.872;2022-08-16T06:09:14;35.63;;;19.57;;
8572;SDS011;4324;42.012;24.872;2022-08-16T06:11:42;50.73;;;17.50;;
8572;SDS011;4324;42.012;24.872;2022-08-16T06:14:11;15.67;;;13.63;;
8572;SDS011;4324;42.012;24.872;2022-08-16T06:16:39;17.10;;;15.60;;
8572;SDS011;4324;42.012;24.872;2022-08-16T06:19:06;23.67;;;15.83;;
8572;SDS011;4324;42.012;24.872;2022-08-16T06:21:33;32.47;;;16.80;;
8572;SDS011;4324;42.012;24.872;2022-08-16T06:24:00;19.73;;;15.00;;
8572;SDS011;4324;42.012;24.872;2022-08-16T06:26:28;15.63;;;14.33;;
8572;SDS011;4324;42.012;24.872;2022-08-16T06:28:55;15.73;;;13.93;;
8572;SDS011;4324;42.012;24.872;2022-08-16T06:31:23;17.47;;;15.87;;
8572;SDS011;4324;42.012;24.872;2022-08-16T06:33:50;22.87;;;15.17;;
8572;SDS011;4324;42.012;24.872;2022-08-16T06:36:17;39.97;;;19.23;;
8572;SDS011;4324;42.012;24.872;2022-08-16T06:38:44;16.37;;;14.10;;
8572;SDS011;4324;42.012;24.872;2022-08-16T06:41:11;15.13;;;13.83;;
8572;SDS011;4324;42.012;24.872;2022-08-16T06:43:38;15.57;;;14.37;;
8572;SDS011;4324;42.012;24.872;2022-08-16T06:46:06;19.03;;;17.33;;
8572;SDS011;4324;42.012;24.872;2022-08-16T06:48:38;16.17;;;14.87;;
8572;SDS011;4324;42.012;24.872;2022-08-16T06:51:05;14.80;;;13.70;;
8572;SDS011;4324;42.012;24.872;2022-08-16T06:53:33;14.30;;;13.10;;
8572;SDS011;4324;42.012;24.872;2022-08-16T06:56:00;22.60;;;15.13;;
8572;SDS011;4324;42.012;24.872;2022-08-16T06:58:31;25.30;;;16.23;;
8572;SDS011;4324;42.012;24.872;2022-08-16T07:00:59;14.30;;;13.17;;
8572;SDS011;4324;42.012;24.872;2022-08-16T07:03:27;15.43;;;14.23;;
8572;SDS011;4324;42.012;24.872;2022-08-16T07:05:56;15.40;;;14.10;;
8572;SDS011;4324;42.012;24.872;2022-08-16T07:08:24;37.00;;;18.70;;
8572;SDS011;4324;42.012;24.872;2022-08-16T07:10:52;28.00;;;16.47;;
8572;SDS011;4324;42.012;24.872;2022-08-16T07:13:19;34.03;;;16.53;;
8572;SDS011;4324;42.012;24.872;2022-08-16T07:15:46;20.00;;;17.57;;
8572;SDS011;4324;42.012;24.872;2022-08-16T07:18:16;14.50;;;13.30;;
8572;SDS011;4324;42.012;24.872;2022-08-16T07:20:44;15.27;;;13.77;;
8572;SDS011;4324;42.012;24.872;2022-08-16T07:23:13;16.00;;;14.40;;
8572;SDS011;4324;42.012;24.872;2022-08-16T07:25:40;15.33;;;14.13;;
8572;SDS011;4324;42.012;24.872;2022-08-16T07:28:13;16.33;;;15.03;;
8572;SDS011;4324;42.012;24.872;2022-08-16T07:30:42;16.33;;;14.93;;
8572;SDS011;4324;42.012;24.872;2022-08-16T07:33:09;19.47;;;17.77;;
8572;SDS011;4324;42.012;24.872;2022-08-16T07:35:38;19.90;;;17.80;;
8572;SDS011;4324;42.012;24.872;2022-08-16T07:38:06;19.60;;;17.83;;
8572;SDS011;4324;42.012;24.872;2022-08-16T07:40:34;17.30;;;15.90;;
8572;SDS011;4324;42.012;24.872;2022-08-16T07:43:02;18.67;;;17.10;;
8572;SDS011;4324;42.012;24.872;2022-08-16T07:45:30;14.57;;;13.27;;
8572;SDS011;4324;42.012;24.872;2022-08-16T07:47:58;14.47;;;13.27;;
8572;SDS011;4324;42.012;24.872;2022-08-16T07:50:26;14.37;;;13.23;;
8572;SDS011;4324;42.012;24.872;2022-08-16T07:52:53;14.43;;;13.13;;
8572;SDS011;4324;42.012;24.872;2022-08-16T07:55:20;13.70;;;12.60;;
8572;SDS011;4324;42.012;24.872;2022-08-16T07:57:48;13.83;;;12.60;;
8572;SDS011;4324;42.012;24.872;2022-08-16T08:00:15;13.03;;;11.90;;
8572;SDS011;4324;42.012;24.872;2022-08-16T08:02:44;14.47;;;13.27;;
8572;SDS011;4324;42.012;24.872;2022-08-16T08:05:12;14.10;;;12.83;;
8572;SDS011;4324;42.012;24.872;2022-08-16T08:07:39;13.47;;;12.40;;
8572;SDS011;4324;42.012;24.872;2022-08-16T08:10:06;12.67;;;11.73;;
8572;SDS011;4324;42.012;24.872;2022-08-16T08:12:34;12.50;;;11.57;;
8572;SDS011;4324;42.012;24.872;2022-08-16T08:15:04;14.10;;;12.80;;
8572;SDS011;4324;42.012;24.872;2022-08-16T08:17:34;13.57;;;12.20;;
8572;SDS011;4324;42.012;24.872;2022-08-16T08:20:22;12.70;;;11.50;;
8572;SDS011;4324;42.012;24.872;2022-08-16T08:23:06;12.93;;;11.83;;
8572;SDS011;4324;42.012;24.872;2022-08-16T08:25:34;13.07;;;12.00;;
8572;SDS011;4324;42.012;24.872;2022-08-16T08:28:00;13.20;;;12.20;;
8572;SDS011;4324;42.012;24.872;2022-08-16T08:30:29;13.17;;;12.17;;
8572;SDS011;4324;42.012;24.872;2022-08-16T08:32:56;13.07;;;11.73;;
8572;SDS011;4324;42.012;24.872;2022-08-16T08:35:23;13.53;;;12.53;;
8572;SDS011;4324;42.012;24.872;2022-08-16T08:37:50;12.80;;;11.90;;
8572;SDS011;4324;42.012;24.872;2022-08-16T08:40:17;13.60;;;12.50;;
8572;SDS011;4324;42.012;24.872;2022-08-16T08:42:45;14.43;;;11.63;;
8572;SDS011;4324;42.012;24.872;2022-08-16T08:45:12;15.43;;;14.07;;
8572;SDS011;4324;42.012;24.872;2022-08-16T08:47:42;14.07;;;12.77;;
8572;SDS011;4324;42.012;24.872;2022-08-16T08:50:11;12.50;;;11.50;;
8572;SDS011;4324;42.012;24.872;2022-08-16T08:52:41;12.90;;;11.80;;
8572;SDS011;4324;42.012;24.872;2022-08-16T08:55:09;13.07;;;11.90;;
8572;SDS011;4324;42.012;24.872;2022-08-16T08:57:38;14.50;;;13.30;;
8572;SDS011;4324;42.012;24.872;2022-08-16T09:00:05;13.30;;;12.20;;
8572;SDS011;4324;42.012;24.872;2022-08-16T09:02:33;13.30;;;12.30;;
8572;SDS011;4324;42.012;24.872;2022-08-16T09:05:02;13.73;;;12.73;;
8572;SDS011;4324;42.012;24.872;2022-08-16T09:07:29;13.37;;;12.37;;
8572;SDS011;4324;42.012;24.872;2022-08-16T09:09:56;12.87;;;11.80;;
8572;SDS011;4324;42.012;24.872;2022-08-16T09:12:23;12.80;;;11.77;;
8572;SDS011;4324;42.012;24.872;2022-08-16T09:14:50;12.03;;;11.03;;
8572;SDS011;4324;42.012;24.872;2022-08-16T09:17:17;13.53;;;12.43;;
8572;SDS011;4324;42.012;24.872;2022-08-16T09:19:44;13.53;;;12.20;;
8572;SDS011;4324;42.012;24.872;2022-08-16T09:22:13;13.17;;;12.07;;
8572;SDS011;4324;42.012;24.872;2022-08-16T09:24:40;14.07;;;12.90;;
8572;SDS011;4324;42.012;24.872;2022-08-16T09:27:07;12.37;;;11.40;;
8572;SDS011;4324;42.012;24.872;2022-08-16T09:29:33;15.43;;;14.03;;
8572;SDS011;4324;42.012;24.872;2022-08-16T09:32:01;11.67;;;10.67;;
8572;SDS011;4324;42.012;24.872;2022-08-16T09:34:28;11.40;;;10.40;;
8572;SDS011;4324;42.012;24.872;2022-08-16T09:36:55;12.07;;;11.07;;
8572;SDS011;4324;42.012;24.872;2022-08-16T09:39:24;12.02;;;11.05;;
8572;SDS011;4324;42.012;24.872;2022-08-16T09:41:51;11.80;;;10.90;;
8572;SDS011;4324;42.012;24.872;2022-08-16T09:44:20;11.13;;;10.32;;
8572;SDS011;4324;42.012;24.872;2022-08-16T09:46:49;10.30;;;9.40;;
8572;SDS011;4324;42.012;24.872;2022-08-16T09:49:17;9.82;;;9.02;;
8572;SDS011;4324;42.012;24.872;2022-08-16T09:51:46;10.30;;;9.48;;
8572;SDS011;4324;42.012;24.872;2022-08-16T09:54:19;11.20;;;10.27;;
8572;SDS011;4324;42.012;24.872;2022-08-16T09:56:48;10.77;;;9.85;;
8572;SDS011;4324;42.012;24.872;2022-08-16T09:59:16;10.30;;;9.50;;
8572;SDS011;4324;42.012;24.872;2022-08-16T10:01:45;11.07;;;10.27;;
8572;SDS011;4324;42.012;24.872;2022-08-16T10:04:13;10.77;;;10.02;;
8572;SDS011;4324;42.012;24.872;2022-08-16T10:06:40;10.20;;;9.50;;
8572;SDS011;4324;42.012;24.872;2022-08-16T10:09:10;11.13;;;10.20;;
8572;SDS011;4324;42.012;24.872;2022-08-16T10:11:39;11.55;;;10.55;;
8572;SDS011;4324;42.012;24.872;2022-08-16T10:14:26;9.95;;;9.25;;
8572;SDS011;4324;42.012;24.872;2022-08-16T10:16:55;10.13;;;9.25;;
8572;SDS011;4324;42.012;24.872;2022-08-16T10:19:23;8.40;;;7.80;;
8572;SDS011;4324;42.012;24.872;2022-08-16T10:21:50;9.32;;;8.43;;
8572;SDS011;4324;42.012;24.872;2022-08-16T10:24:18;8.13;;;7.53;;
8572;SDS011;4324;42.012;24.872;2022-08-16T10:26:45;9.38;;;7.47;;
8572;SDS011;4324;42.012;24.872;2022-08-16T10:29:12;7.20;;;6.70;;
8572;SDS011;4324;42.012;24.872;2022-08-16T10:31:41;7.68;;;6.88;;
8572;SDS011;4324;42.012;24.872;2022-08-16T10:34:08;8.95;;;8.25;;
8572;SDS011;4324;42.012;24.872;2022-08-16T10:36:35;7.78;;;7.18;;
8572;SDS011;4324;42.012;24.872;2022-08-16T10:39:03;8.65;;;7.75;;
8572;SDS011;4324;42.012;24.872;2022-08-16T10:41:31;8.10;;;7.30;;
8572;SDS011;4324;42.012;24.872;2022-08-16T10:43:58;7.38;;;6.88;;
8572;SDS011;4324;42.012;24.872;2022-08-16T10:46:25;7.93;;;7.32;;
8572;SDS011;4324;42.012;24.872;2022-08-16T10:48:54;7.63;;;6.90;;
8572;SDS011;4324;42.012;24.872;2022-08-16T10:51:21;8.65;;;7.95;;
8572;SDS011;4324;42.012;24.872;2022-08-16T10:53:47;9.63;;;8.85;;
8572;SDS011;4324;42.012;24.872;2022-08-16T10:56:15;12.18;;;11.27;;
8572;SDS011;4324;42.012;24.872;2022-08-16T10:58:42;11.15;;;10.45;;
8572;SDS011;4324;42.012;24.872;2022-08-16T11:01:09;13.18;;;12.30;;
8572;SDS011;4324;42.012;24.872;2022-08-16T11:03:37;11.38;;;10.55;;
8572;SDS011;4324;42.012;24.872;2022-08-16T11:06:06;11.45;;;10.63;;
8572;SDS011;4324;42.012;24.872;2022-08-16T11:08:34;11.07;;;10.38;;
8572;SDS011;4324;42.012;24.872;2022-08-16T11:11:02;12.07;;;11.27;;
8572;SDS011;4324;42.012;24.872;2022-08-16T11:13:30;11.77;;;11.07;;
8572;SDS011;4324;42.012;24.872;2022-08-16T11:15:57;12.57;;;11.68;;
8572;SDS011;4324;42.012;24.872;2022-08-16T11:18:27;12.65;;;11.75;;
8572;SDS011;4324;42.012;24.872;2022-08-16T11:20:55;13.20;;;12.13;;
8572;SDS011;4324;42.012;24.872;2022-08-16T11:23:25;14.82;;;13.95;;
8572;SDS011;4324;42.012;24.872;2022-08-16T11:25:53;14.30;;;13.20;;
8572;SDS011;4324;42.012;24.872;2022-08-16T11:28:21;12.15;;;11.45;;
8572;SDS011;4324;42.012;24.872;2022-08-16T11:30:48;12.07;;;11.27;;
8572;SDS011;4324;42.012;24.872;2022-08-16T11:33:18;13.25;;;12.23;;
8572;SDS011;4324;42.012;24.872;2022-08-16T11:35:45;10.00;;;9.20;;
8572;SDS011;4324;42.012;24.872;2022-08-16T11:38:14;9.13;;;8.52;;
8572;SDS011;4324;42.012;24.872;2022-08-16T11:40:45;9.30;;;8.70;;
8572;SDS011;4324;42.012;24.872;2022-08-16T11:43:15;9.90;;;9.07;;
8572;SDS011;4324;42.012;24.872;2022-08-16T11:45:44;9.57;;;8.88;;
8572;SDS011;4324;42.012;24.872;2022-08-16T11:48:12;9.60;;;8.90;;
8572;SDS011;4324;42.012;24.872;2022-08-16T11:50:40;10.48;;;9.68;;
8572;SDS011;4324;42.012;24.872;2022-08-16T11:53:08;10.48;;;9.77;;
8572;SDS011;4324;42.012;24.872;2022-08-16T11:55:36;10.00;;;9.30;;
8572;SDS011;4324;42.012;24.872;2022-08-16T11:58:06;9.68;;;8.98;;
8572;SDS011;4324;42.012;24.872;2022-08-16T12:00:35;9.30;;;8.45;;
8572;SDS011;4324;42.012;24.872;2022-08-16T12:03:03;9.38;;;8.68;;
8572;SDS011;4324;42.012;24.872;2022-08-16T12:05:31;10.02;;;9.23;;
8572;SDS011;4324;42.012;24.872;2022-08-16T12:08:02;10.10;;;9.30;;
8572;SDS011;4324;42.012;24.872;2022-08-16T12:10:31;9.73;;;9.02;;
8572;SDS011;4324;42.012;24.872;2022-08-16T12:12:59;9.80;;;9.10;;
8572;SDS011;4324;42.012;24.872;2022-08-16T12:15:27;10.50;;;9.70;;
8572;SDS011;4324;42.012;24.872;2022-08-16T12:17:55;9.60;;;8.95;;
8572;SDS011;4324;42.012;24.872;2022-08-16T12:20:24;12.32;;;11.48;;
8572;SDS011;4324;42.012;24.872;2022-08-16T12:22:52;11.65;;;10.85;;
8572;SDS011;4324;42.012;24.872;2022-08-16T12:25:21;9.90;;;9.20;;
8572;SDS011;4324;42.012;24.872;2022-08-16T12:27:50;10.70;;;9.75;;
8572;SDS011;4324;42.012;24.872;2022-08-16T12:30:19;10.82;;;9.90;;
8572;SDS011;4324;42.012;24.872;2022-08-16T12:32:50;10.15;;;9.43;;
8572;SDS011;4324;42.012;24.872;2022-08-16T12:35:18;10.00;;;9.30;;
8572;SDS011;4324;42.012;24.872;2022-08-16T12:37:47;10.20;;;9.30;;
8572;SDS011;4324;42.012;24.872;2022-08-16T12:40:15;10.60;;;9.82;;
8572;SDS011;4324;42.012;24.872;2022-08-16T12:42:45;9.38;;;8.68;;
8572;SDS011;4324;42.012;24.872;2022-08-16T12:45:15;9.77;;;8.90;;
8572;SDS011;4324;42.012;24.872;2022-08-16T12:47:45;9.65;;;8.95;;
8572;SDS011;4324;42.012;24.872;2022-08-16T12:50:31;11.93;;;11.20;;
8572;SDS011;4324;42.012;24.872;2022-08-16T12:52:58;12.60;;;11.80;;
8572;SDS011;4324;42.012;24.872;2022-08-16T12:55:25;11.93;;;11.05;;
8572;SDS011;4324;42.012;24.872;2022-08-16T12:57:52;12.60;;;11.90;;
8572;SDS011;4324;42.012;24.872;2022-08-16T13:00:20;12.75;;;11.85;;
8572;SDS011;4324;42.012;24.872;2022-08-16T13:02:49;11.32;;;10.63;;
8572;SDS011;4324;42.012;24.872;2022-08-16T13:05:17;10.80;;;10.10;;
8572;SDS011;4324;42.012;24.872;2022-08-16T13:07:45;11.57;;;10.77;;
8572;SDS011;4324;42.012;24.872;2022-08-16T13:10:12;11.10;;;10.40;;
8572;SDS011;4324;42.012;24.872;2022-08-16T13:12:40;13.00;;;12.00;;
8572;SDS011;4324;42.012;24.872;2022-08-16T13:15:09;11.68;;;10.68;;
8572;SDS011;4324;42.012;24.872;2022-08-16T13:17:38;12.48;;;11.57;;
8572;SDS011;4324;42.012;24.872;2022-08-16T13:20:07;11.25;;;10.55;;
8572;SDS011;4324;42.012;24.872;2022-08-16T13:22:36;11.85;;;10.95;;
8572;SDS011;4324;42.012;24.872;2022-08-16T13:25:09;12.95;;;12.15;;
8572;SDS011;4324;42.012;24.872;2022-08-16T13:27:38;12.00;;;11.20;;
8572;SDS011;4324;42.012;24.872;2022-08-16T13:30:06;12.30;;;11.57;;
8572;SDS011;4324;42.012;24.872;2022-08-16T13:32:33;12.13;;;11.32;;
8572;SDS011;4324;42.012;24.872;2022-08-16T13:35:00;12.27;;;11.48;;
8572;SDS011;4324;42.012;24.872;2022-08-16T13:37:27;11.52;;;10.82;;
8572;SDS011;4324;42.012;24.872;2022-08-16T13:39:54;10.73;;;10.07;;
8572;SDS011;4324;42.012;24.872;2022-08-16T13:42:23;10.60;;;9.82;;
8572;SDS011;4324;42.012;24.872;2022-08-16T13:44:50;11.68;;;10.98;;
8572;SDS011;4324;42.012;24.872;2022-08-16T13:47:17;11.25;;;10.35;;
8572;SDS011;4324;42.012;24.872;2022-08-16T13:49:44;12.20;;;11.30;;
8572;SDS011;4324;42.012;24.872;2022-08-16T13:52:11;13.15;;;12.05;;
8572;SDS011;4324;42.012;24.872;2022-08-16T13:54:39;13.98;;;11.95;;
8572;SDS011;4324;42.012;24.872;2022-08-16T13:57:06;13.00;;;11.68;;
8572;SDS011;4324;42.012;24.872;2022-08-16T13:59:34;10.05;;;9.32;;
8572;SDS011;4324;42.012;24.872;2022-08-16T14:02:02;10.25;;;9.40;;
8572;SDS011;4324;42.012;24.872;2022-08-16T14:04:33;11.48;;;10.57;;
8572;SDS011;4324;42.012;24.872;2022-08-16T14:07:04;10.90;;;10.00;;
8572;SDS011;4324;42.012;24.872;2022-08-16T14:09:33;10.20;;;9.50;;
8572;SDS011;4324;42.012;24.872;2022-08-16T14:12:10;10.55;;;9.65;;
8572;SDS011;4324;42.012;24.872;2022-08-16T14:14:44;10.35;;;9.65;;
8572;SDS011;4324;42.012;24.872;2022-08-16T14:17:11;11.32;;;10.43;;
8572;SDS011;4324;42.012;24.872;2022-08-16T14:19:37;11.55;;;10.65;;
8572;SDS011;4324;42.012;24.872;2022-08-16T14:22:05;10.50;;;9.73;;
8572;SDS011;4324;42.012;24.872;2022-08-16T14:24:31;10.30;;;9.30;;
8572;SDS011;4324;42.012;24.872;2022-08-16T14:26:58;10.48;;;9.88;;
8572;SDS011;4324;42.012;24.872;2022-08-16T14:29:25;9.90;;;9.18;;
8572;SDS011;4324;42.012;24.872;2022-08-16T14:31:56;10.52;;;9.77;;
8572;SDS011;4324;42.012;24.872;2022-08-16T14:34:24;10.55;;;9.85;;
8572;SDS011;4324;42.012;24.872;2022-08-16T14:36:51;10.10;;;9.30;;
8572;SDS011;4324;42.012;24.872;2022-08-16T14:39:18;10.63;;;9.73;;
8572;SDS011;4324;42.012;24.872;2022-08-16T14:41:46;11.82;;;11.02;;
8572;SDS011;4324;42.012;24.872;2022-08-16T14:44:13;13.52;;;12.63;;